Flight Track Log - Related Links

Times and Time Zones

All times are in EST time to prevent confusion due to time zone crossing. See the XOJ552 flight status page for this flight to view local times or setup timezone preferences in your user account.

Time Position Orientation Groundspeed Altitude Reporting Facility
EST Latitude Longitude Course Direction KTS MPH feet Rate Location/Type
Tue 02:29:33 PM 37.6500 -122.3500 58° Northeast 186 214 2,200  Level Northern Cal TRACON
Tue 02:30:33 PM 37.6833 -122.2833 58° Northeast 202 232 5,600 3,087 Climbing Northern Cal TRACON
Tue 02:33:01 PM 37.7642 -122.0833 63° Northeast 316 364 12,900 2,943 Climbing Oakland Center
Tue 02:34:03 PM 37.7997 -121.9633 69° East 362 417 15,900 2,976 Climbing Oakland Center
Tue 02:35:04 PM 37.8342 -121.8119 74° East 375 432 19,000 2,852 Climbing Oakland Center
Tue 02:36:05 PM 37.8619 -121.6747 76° East 400 460 21,700 2,634 Climbing Oakland Center
Tue 02:37:07 PM 37.8903 -121.5342 76° East 416 479 24,400 2,293 Climbing Oakland Center
Tue 02:38:08 PM 37.9197 -121.3861 76° East 431 496 26,400 1,951 Climbing Oakland Center
Tue 02:39:10 PM 37.9492 -121.2283 77° East 457 526 28,400 1,902 Climbing Oakland Center
Tue 02:40:11 PM 37.9808 -121.0661 76° East 474 545 30,300 1,770 Climbing Oakland Center
Tue 02:41:12 PM 38.0128 -120.8989 76° East 489 563 32,000 1,707 Climbing Oakland Center
Tue 02:42:14 PM 38.0531 -120.6908 76° East 507 583 33,800 1,659 Climbing Oakland Center
Tue 02:43:15 PM 38.0861 -120.5139 77° East 516 594 35,400 1,721 Climbing Oakland Center
Tue 02:44:16 PM 38.1200 -120.3381 76° East 515 593 37,300 1,902 Climbing Oakland Center
Tue 02:45:18 PM 38.1517 -120.1658 77° East 506 582 39,300 1,756 Climbing Oakland Center
Tue 02:46:19 PM 38.1836 -119.9989 76° East 493 567 40,900 1,180 Climbing Oakland Center
Tue 02:47:20 PM 38.2142 -119.8328 77° East 488 562 41,700 780 Climbing Oakland Center
Tue 02:48:22 PM 38.2444 -119.6628 77° East 493 567 42,500 732 Climbing Oakland Center
Tue 02:49:23 PM 38.2750 -119.4936 77° East 493 567 43,200 689 Climbing Oakland Center
Tue 02:50:24 PM 38.3128 -119.2867 77° East 496 571 43,900 732 Climbing Oakland Center
Tue 02:51:26 PM 38.3428 -119.1167 77° East 496 571 44,700 537 Climbing Oakland Center
Tue 02:52:27 PM 38.3722 -118.9483 77° East 494 568 45,000 148 Climbing Oakland Center
Tue 02:53:28 PM 38.4006 -118.7767 78° East 495 570 45,000  Level Oakland Center
Tue 02:54:30 PM 38.4314 -118.6050 77° East 497 572 45,000  Level Oakland Center
Tue 02:55:31 PM 38.4603 -118.4322 78° East 500 575 45,000  Level Oakland Center
Tue 02:56:32 PM 38.4933 -118.2639 76° East 494 568 45,000  Level Oakland Center
Tue 02:57:34 PM 38.5275 -118.0906 76° East 486 559 45,000  Level Oakland Center
Tue 02:58:35 PM 38.5617 -117.9225 75° East 486 559 45,000  Level Oakland Center
Tue 02:59:36 PM 38.5947 -117.7542 76° East 486 559 45,000  Level Oakland Center
Tue 03:00:26 PM 38.6197 -117.6189 77° East 487 560 45,000  Level Salt Lake Center
Tue 03:01:27 PM 38.6536 -117.4492 76° East 489 563 45,000  Level Salt Lake Center
Tue 03:02:29 PM 38.6925 -117.2442 76° East 491 565 45,000  Level Salt Lake Center
Tue 03:03:30 PM 38.7236 -117.0742 77° East 487 560 45,000  Level Salt Lake Center
Tue 03:04:32 PM 38.7553 -116.9056 76° East 486 559 45,000  Level Salt Lake Center
Tue 03:05:33 PM 38.7875 -116.7361 76° East 487 560 45,000  Level Salt Lake Center
Tue 03:06:35 PM 38.8186 -116.5689 77° East 483 556 45,000  Level Salt Lake Center
Tue 03:07:36 PM 38.8489 -116.4022 77° East 478 550 45,000  Level Salt Lake Center
Tue 03:08:38 PM 38.8792 -116.2381 77° East 474 545 45,000  Level Salt Lake Center
Tue 03:09:40 PM 38.9086 -116.0722 77° East 475 547 45,000  Level Salt Lake Center
Tue 03:10:41 PM 38.9381 -115.9103 77° East 467 537 45,000  Level Salt Lake Center
Tue 03:11:43 PM 38.9667 -115.7472 77° East 468 539 45,000  Level Salt Lake Center
Tue 03:12:44 PM 39.0011 -115.5536 77° East 466 536 45,000  Level Salt Lake Center
Tue 03:13:46 PM 39.0294 -115.3914 77° East 464 534 45,000  Level Salt Lake Center
Tue 03:14:47 PM 39.0589 -115.2247 77° East 463 533 45,000  Level Salt Lake Center
Tue 03:15:49 PM 39.0861 -115.0617 78° East 466 536 45,000  Level Salt Lake Center
Tue 03:16:50 PM 39.1153 -114.8975 77° East 470 541 45,000  Level Salt Lake Center
Tue 03:17:52 PM 39.1433 -114.7322 78° East 472 543 45,000  Level Salt Lake Center
Tue 03:18:53 PM 39.1711 -114.5694 78° East 469 540 45,000  Level Salt Lake Center
Tue 03:19:55 PM 39.1947 -114.4125 79° East 464 534 45,000  Level Salt Lake Center
Tue 03:20:56 PM 39.2244 -114.2403 77° East 475 547 45,000  Level Salt Lake Center
Tue 03:21:58 PM 39.2506 -114.0758 78° East 471 542 45,000  Level Salt Lake Center
Tue 03:23:00 PM 39.2828 -113.8783 78° East 469 540 45,000  Level Salt Lake Center
Tue 03:24:01 PM 39.3083 -113.7136 79° East 468 539 45,000  Level Salt Lake Center
Tue 03:25:03 PM 39.3342 -113.5497 78° East 467 537 45,000  Level Salt Lake Center
Tue 03:26:04 PM 39.3597 -113.3844 79° East 468 539 45,000  Level Salt Lake Center
Tue 03:27:06 PM 39.3850 -113.2197 79° East 468 539 45,000  Level Salt Lake Center
Tue 03:28:07 PM 39.4100 -113.0556 79° East 466 536 45,000  Level Salt Lake Center
Tue 03:29:09 PM 39.4347 -112.8911 79° East 466 536 45,000  Level Salt Lake Center
Tue 03:30:10 PM 39.4600 -112.7269 79° East 465 535 45,000  Level Salt Lake Center
Tue 03:31:12 PM 39.4875 -112.5367 79° East 467 537 45,000  Level Salt Lake Center
Tue 03:32:14 PM 39.5117 -112.3700 79° East 471 542 45,000  Level Salt Lake Center
Tue 03:33:15 PM 39.5367 -112.2047 79° East 471 542 45,000  Level Salt Lake Center
Tue 03:34:17 PM 39.5597 -112.0361 80° East 477 549 45,000  Level Salt Lake Center
Tue 03:35:18 PM 39.5831 -111.8692 80° East 474 545 45,000  Level Salt Lake Center
Tue 03:36:20 PM 39.6064 -111.7017 80° East 474 545 45,000  Level Salt Lake Center
Tue 03:37:21 PM 39.6342 -111.4989 80° East 479 551 45,000  Level Salt Lake Center
Tue 03:38:23 PM 39.6578 -111.3292 80° East 480 552 45,000  Level Salt Lake Center
Tue 03:39:25 PM 39.6800 -111.1708 80° East 472 543 45,000  Level Salt Lake Center
Tue 03:40:26 PM 39.7058 -110.9808 80° East 478 550 45,000  Level Salt Lake Center
Tue 03:41:28 PM 39.7275 -110.8167 80° East 482 555 45,000  Level Salt Lake Center
Tue 03:42:29 PM 39.7475 -110.6525 81° East 481 554 45,000  Level Salt Lake Center
Tue 03:43:31 PM 39.7733 -110.4589 80° East 486 559 45,000  Level Salt Lake Center
Tue 03:44:32 PM 39.7939 -110.2919 81° East 488 562 45,000 -244 Level Salt Lake Center
Tue 03:45:34 PM 39.8197 -110.0936 80° East 496 571 44,500 -1,024 Descending Salt Lake Center
Tue 03:46:35 PM 39.8203 -109.9233 90° East 498 573 42,900 -1,902 Descending Salt Lake Center
Tue 03:47:37 PM 39.8125 -109.7233 93° East 497 572 40,600 -2,146 Descending Salt Lake Center
Tue 03:48:38 PM 39.8058 -109.5503 93° East 500 575 38,500 -2,049 Descending Salt Lake Center
Tue 03:49:40 PM 39.7981 -109.3775 93° East 501 577 36,400 -1,707 Descending Salt Lake Center
Tue 03:50:41 PM 39.7889 -109.1722 93° East 507 583 35,000 -738 Descending Salt Lake Center
Tue 03:51:42 PM 39.7814 -108.9961 93° East 508 585 34,900 -659 Descending Salt Lake Center
Tue 03:52:12 PM 39.7764 -108.9089 94° East 500 575 34,000 -1,846 Descending Denver Center
Tue 03:53:13 PM 39.7686 -108.7392 93° East 484 557 32,100 -2,000 Descending Denver Center
Tue 03:54:15 PM 39.7594 -108.5381 93° East 492 566 29,900 -1,790 Descending Denver Center
Tue 03:55:17 PM 39.7497 -108.3719 94° East 481 554 28,400 -1,415 Descending Denver Center
Tue 03:56:18 PM 39.7411 -108.2100 94° East 471 542 27,000 -1,512 Descending Denver Center
Tue 03:57:20 PM 39.7300 -108.0183 94° East 475 547 25,300 -1,500 Descending Denver Center
Tue 03:58:22 PM 39.7214 -107.8594 94° East 462 532 23,900 -1,415 Descending Denver Center
Tue 03:59:23 PM 39.7117 -107.6814 94° East 444 511 22,400 -1,366 Descending Denver Center
Tue 04:00:25 PM 39.7031 -107.5339 94° East 431 496 21,100 -1,366 Descending Denver Center
Tue 04:01:26 PM 39.6931 -107.3686 94° East 413 475 19,600 -1,512 Descending Denver Center
Tue 04:02:28 PM 39.6539 -107.2436 112° Southeast 408 470 18,000 -1,258 Descending Denver Center
Tue 04:03:30 PM 39.5931 -107.1447 129° Southeast 367 422 17,000 -927 Descending Denver Center
Tue 04:04:31 PM 39.5319 -107.0467 129° Southeast 320 368 16,100 -585 Descending Denver Center
Tue 04:05:33 PM 39.4733 -106.9775 138° Southeast 305 351 15,800 -976 Descending Denver Center
Tue 04:06:34 PM 39.4031 -106.9358 155° Southeast 279 321 14,100 -1,707 Descending Denver Center
Tue 04:07:36 PM 39.3514 -106.9200 167° South 206 237 12,300 -1,984 Descending Denver Center
Tue 04:08:38 PM 39.3042 -106.9092 170° South 185 213 10,000 -1,805 Descending Denver Center
Tue 04:09:39 PM 39.2592 -106.8856 158° South 173 199 8,600 -1,377 Descending Denver Center

Login

Don't have an account? Register now (free) for customized features, flight alerts, and more!